sensor_id;sensor_type;location;lat;lon;timestamp;pressure;altitude;pressure_sealevel;temperature;humidity
73338;BME280;61575;49.908;35.556;2023-04-02T00:01:39;98650.72;;;6.08;87.20
73338;BME280;61575;49.908;35.556;2023-04-02T00:04:41;98647.72;;;6.03;87.39
73338;BME280;61575;49.908;35.556;2023-04-02T00:07:49;98655.03;;;6.01;87.57
73338;BME280;61575;49.908;35.556;2023-04-02T00:10:59;98654.53;;;5.97;87.44
73338;BME280;61575;49.908;35.556;2023-04-02T00:14:15;98656.03;;;6.00;87.45
73338;BME280;61575;49.908;35.556;2023-04-02T00:17:22;98659.84;;;5.97;87.76
73338;BME280;61575;49.908;35.556;2023-04-02T00:20:29;98657.53;;;6.02;87.59
73338;BME280;61575;49.908;35.556;2023-04-02T00:23:39;98648.69;;;5.94;87.71
73338;BME280;61575;49.908;35.556;2023-04-02T00:26:46;98649.34;;;5.96;87.64
73338;BME280;61575;49.908;35.556;2023-04-02T00:29:55;98662.16;;;5.92;87.49
73338;BME280;61575;49.908;35.556;2023-04-02T00:32:57;98666.81;;;5.90;87.73
73338;BME280;61575;49.908;35.556;2023-04-02T00:36:04;98668.66;;;5.90;87.63
73338;BME280;61575;49.908;35.556;2023-04-02T00:39:16;98656.31;;;5.81;87.94
73338;BME280;61575;49.908;35.556;2023-04-02T00:42:19;98655.81;;;5.85;87.58
73338;BME280;61575;49.908;35.556;2023-04-02T00:45:22;98659.31;;;5.86;87.57
73338;BME280;61575;49.908;35.556;2023-04-02T00:48:40;98660.97;;;5.87;87.53
73338;BME280;61575;49.908;35.556;2023-04-02T00:51:54;98657.47;;;5.86;87.48
73338;BME280;61575;49.908;35.556;2023-04-02T00:55:07;98653.00;;;5.87;87.39
73338;BME280;61575;49.908;35.556;2023-04-02T00:58:24;98658.31;;;5.87;87.62
73338;BME280;61575;49.908;35.556;2023-04-02T01:01:35;98652.81;;;5.88;87.50
73338;BME280;61575;49.908;35.556;2023-04-02T01:04:40;98648.81;;;5.84;87.39
73338;BME280;61575;49.908;35.556;2023-04-02T01:21:28;98645.28;;;5.76;87.66
73338;BME280;61575;49.908;35.556;2023-04-02T01:24:35;98645.94;;;5.69;88.02
73338;BME280;61575;49.908;35.556;2023-04-02T01:27:43;98639.59;;;5.70;87.85
73338;BME280;61575;49.908;35.556;2023-04-02T01:30:51;98643.94;;;5.71;88.09
73338;BME280;61575;49.908;35.556;2023-04-02T01:33:54;98637.94;;;5.69;88.01
73338;BME280;61575;49.908;35.556;2023-04-02T01:47:11;98653.09;;;5.69;87.37
73338;BME280;61575;49.908;35.556;2023-04-02T01:50:33;98639.94;;;5.67;87.50
73338;BME280;61575;49.908;35.556;2023-04-02T01:53:38;98642.56;;;5.59;87.96
73338;BME280;61575;49.908;35.556;2023-04-02T01:56:44;98646.56;;;5.63;87.55
73338;BME280;61575;49.908;35.556;2023-04-02T01:59:48;98649.22;;;5.63;87.51
73338;BME280;61575;49.908;35.556;2023-04-02T02:02:50;98655.03;;;5.59;87.29
73338;BME280;61575;49.908;35.556;2023-04-02T02:05:53;98651.69;;;5.57;87.15
73338;BME280;61575;49.908;35.556;2023-04-02T02:09:03;98652.53;;;5.57;86.98
73338;BME280;61575;49.908;35.556;2023-04-02T02:12:12;98652.84;;;5.54;87.04
73338;BME280;61575;49.908;35.556;2023-04-02T02:15:25;98656.00;;;5.50;87.28
73338;BME280;61575;49.908;35.556;2023-04-02T02:18:28;98652.13;;;5.44;87.08
73338;BME280;61575;49.908;35.556;2023-04-02T02:21:45;98653.66;;;5.47;87.05
73338;BME280;61575;49.908;35.556;2023-04-02T02:24:49;98648.91;;;5.32;87.43
73338;BME280;61575;49.908;35.556;2023-04-02T02:31:11;98656.47;;;5.45;86.75
73338;BME280;61575;49.908;35.556;2023-04-02T02:34:36;98648.16;;;5.48;86.69
73338;BME280;61575;49.908;35.556;2023-04-02T02:37:43;98656.31;;;5.47;86.52
73338;BME280;61575;49.908;35.556;2023-04-02T02:40:54;98664.78;;;5.42;86.64
73338;BME280;61575;49.908;35.556;2023-04-02T02:44:08;98660.28;;;5.43;86.36
73338;BME280;61575;49.908;35.556;2023-04-02T02:47:22;98666.09;;;5.38;86.29
73338;BME280;61575;49.908;35.556;2023-04-02T02:50:28;98659.91;;;5.37;86.26
73338;BME280;61575;49.908;35.556;2023-04-02T02:53:50;98661.44;;;5.40;85.82
73338;BME280;61575;49.908;35.556;2023-04-02T02:56:59;98662.91;;;5.34;85.41
73338;BME280;61575;49.908;35.556;2023-04-02T03:00:05;98669.53;;;5.30;85.20
73338;BME280;61575;49.908;35.556;2023-04-02T03:03:15;98673.03;;;5.31;85.13
73338;BME280;61575;49.908;35.556;2023-04-02T03:06:31;98680.66;;;5.26;84.77
73338;BME280;61575;49.908;35.556;2023-04-02T03:09:47;98678.97;;;5.25;84.43
73338;BME280;61575;49.908;35.556;2023-04-02T03:13:04;98678.66;;;5.28;83.99
73338;BME280;61575;49.908;35.556;2023-04-02T03:16:19;98673.50;;;5.26;83.88
73338;BME280;61575;49.908;35.556;2023-04-02T03:19:32;98678.50;;;5.29;83.50
73338;BME280;61575;49.908;35.556;2023-04-02T03:22:59;98669.31;;;5.24;82.77
73338;BME280;61575;49.908;35.556;2023-04-02T03:26:06;98671.66;;;5.27;82.72
73338;BME280;61575;49.908;35.556;2023-04-02T03:29:18;98666.34;;;5.27;82.55
73338;BME280;61575;49.908;35.556;2023-04-02T03:32:25;98675.16;;;5.27;82.22
73338;BME280;61575;49.908;35.556;2023-04-02T03:35:44;98676.31;;;5.25;81.98
73338;BME280;61575;49.908;35.556;2023-04-02T03:39:13;98670.69;;;5.28;80.95
73338;BME280;61575;49.908;35.556;2023-04-02T03:42:25;98676.00;;;5.28;81.00
73338;BME280;61575;49.908;35.556;2023-04-02T03:45:35;98674.19;;;5.28;80.62
73338;BME280;61575;49.908;35.556;2023-04-02T03:48:52;98683.06;;;5.37;80.29
73338;BME280;61575;49.908;35.556;2023-04-02T03:52:04;98686.69;;;5.36;80.34
73338;BME280;61575;49.908;35.556;2023-04-02T03:58:33;98685.88;;;5.35;79.56
73338;BME280;61575;49.908;35.556;2023-04-02T04:04:59;98684.25;;;5.43;79.30
73338;BME280;61575;49.908;35.556;2023-04-02T04:08:06;98682.72;;;5.40;79.44
73338;BME280;61575;49.908;35.556;2023-04-02T04:11:13;98691.91;;;5.46;79.12
73338;BME280;61575;49.908;35.556;2023-04-02T04:14:30;98691.41;;;5.42;78.87
73338;BME280;61575;49.908;35.556;2023-04-02T04:21:19;98699.28;;;5.52;78.02
73338;BME280;61575;49.908;35.556;2023-04-02T04:24:37;98690.66;;;5.58;77.79
73338;BME280;61575;49.908;35.556;2023-04-02T04:31:03;98696.03;;;5.66;76.77
73338;BME280;61575;49.908;35.556;2023-04-02T04:34:17;98695.06;;;5.75;76.31
73338;BME280;61575;49.908;35.556;2023-04-02T04:37:27;98700.13;;;5.86;75.91
73338;BME280;61575;49.908;35.556;2023-04-02T04:40:42;98705.63;;;5.93;75.00
73338;BME280;61575;49.908;35.556;2023-04-02T04:46:57;98704.69;;;6.02;73.43
73338;BME280;61575;49.908;35.556;2023-04-02T04:50:12;98703.53;;;6.04;72.44
73338;BME280;61575;49.908;35.556;2023-04-02T04:53:20;98701.41;;;6.16;72.47
73338;BME280;61575;49.908;35.556;2023-04-02T04:56:27;98706.59;;;6.26;71.63
73338;BME280;61575;49.908;35.556;2023-04-02T05:03:47;98710.81;;;6.45;70.05
73338;BME280;61575;49.908;35.556;2023-04-02T05:07:01;98712.16;;;6.57;70.07
73338;BME280;61575;49.908;35.556;2023-04-02T05:10:16;98715.50;;;6.67;68.62
73338;BME280;61575;49.908;35.556;2023-04-02T05:13:29;98716.19;;;6.85;68.95
73338;BME280;61575;49.908;35.556;2023-04-02T05:16:41;98717.22;;;7.00;68.69
73338;BME280;61575;49.908;35.556;2023-04-02T05:20:04;98720.72;;;7.17;67.77
73338;BME280;61575;49.908;35.556;2023-04-02T05:23:22;98718.56;;;7.29;67.38
73338;BME280;61575;49.908;35.556;2023-04-02T05:26:32;98729.41;;;7.36;66.08
73338;BME280;61575;49.908;35.556;2023-04-02T05:29:41;98720.22;;;7.46;65.44
73338;BME280;61575;49.908;35.556;2023-04-02T05:32:58;98719.69;;;7.51;64.58
73338;BME280;61575;49.908;35.556;2023-04-02T05:36:08;98716.84;;;7.60;63.87
73338;BME280;61575;49.908;35.556;2023-04-02T05:39:23;98726.97;;;7.81;63.30
73338;BME280;61575;49.908;35.556;2023-04-02T05:42:30;98717.19;;;8.05;62.55
73338;BME280;61575;49.908;35.556;2023-04-02T05:45:44;98719.25;;;8.34;61.32
73338;BME280;61575;49.908;35.556;2023-04-02T05:48:57;98724.84;;;8.47;60.29
73338;BME280;61575;49.908;35.556;2023-04-02T05:52:02;98733.97;;;8.60;59.67
73338;BME280;61575;49.908;35.556;2023-04-02T05:58:28;98724.00;;;8.77;58.79
73338;BME280;61575;49.908;35.556;2023-04-02T06:05:34;98719.13;;;9.26;57.72
73338;BME280;61575;49.908;35.556;2023-04-02T06:08:42;98726.81;;;9.44;57.08
73338;BME280;61575;49.908;35.556;2023-04-02T06:15:30;98738.41;;;9.22;56.13
73338;BME280;61575;49.908;35.556;2023-04-02T06:18:37;98737.13;;;9.18;55.97
73338;BME280;61575;49.908;35.556;2023-04-02T06:21:45;98747.09;;;9.24;56.19
73338;BME280;61575;49.908;35.556;2023-04-02T06:25:08;98730.94;;;9.32;55.95
73338;BME280;61575;49.908;35.556;2023-04-02T06:28:18;98736.88;;;9.42;55.61
73338;BME280;61575;49.908;35.556;2023-04-02T06:31:49;98742.00;;;9.67;55.50
73338;BME280;61575;49.908;35.556;2023-04-02T06:34:54;98730.63;;;9.79;54.68
73338;BME280;61575;49.908;35.556;2023-04-02T06:38:02;98740.06;;;10.05;54.53
73338;BME280;61575;49.908;35.556;2023-04-02T06:41:17;98726.63;;;10.34;53.69
73338;BME280;61575;49.908;35.556;2023-04-02T06:44:36;98736.50;;;10.48;51.38
73338;BME280;61575;49.908;35.556;2023-04-02T06:47:54;98736.50;;;10.48;49.66
73338;BME280;61575;49.908;35.556;2023-04-02T06:51:13;98739.16;;;10.63;49.96
73338;BME280;61575;49.908;35.556;2023-04-02T06:54:19;98738.78;;;10.66;48.26
73338;BME280;61575;49.908;35.556;2023-04-02T06:57:28;98746.31;;;10.56;47.76
73338;BME280;61575;49.908;35.556;2023-04-02T07:00:37;98743.25;;;10.59;48.62
73338;BME280;61575;49.908;35.556;2023-04-02T07:03:41;98747.78;;;10.73;48.92
73338;BME280;61575;49.908;35.556;2023-04-02T07:06:53;98745.47;;;10.70;49.01
73338;BME280;61575;49.908;35.556;2023-04-02T07:09:57;98748.16;;;10.70;48.80
73338;BME280;61575;49.908;35.556;2023-04-02T07:13:00;98739.41;;;10.83;49.48
73338;BME280;61575;49.908;35.556;2023-04-02T07:16:04;98739.94;;;11.14;49.41
73338;BME280;61575;49.908;35.556;2023-04-02T07:19:16;98733.56;;;11.43;48.50
73338;BME280;61575;49.908;35.556;2023-04-02T07:22:20;98734.41;;;11.72;48.11
73338;BME280;61575;49.908;35.556;2023-04-02T07:25:29;98732.28;;;11.95;48.29
73338;BME280;61575;49.908;35.556;2023-04-02T07:28:35;98733.88;;;12.17;47.10
73338;BME280;61575;49.908;35.556;2023-04-02T07:31:40;98731.47;;;12.36;47.70
73338;BME280;61575;49.908;35.556;2023-04-02T07:34:42;98722.81;;;12.47;47.32
73338;BME280;61575;49.908;35.556;2023-04-02T07:37:44;98734.63;;;12.46;47.43
73338;BME280;61575;49.908;35.556;2023-04-02T07:40:48;98739.38;;;12.44;47.28
73338;BME280;61575;49.908;35.556;2023-04-02T07:43:53;98732.88;;;12.25;47.52
73338;BME280;61575;49.908;35.556;2023-04-02T07:46:55;98726.88;;;12.23;48.08
73338;BME280;61575;49.908;35.556;2023-04-02T07:49:57;98732.88;;;12.25;48.57
73338;BME280;61575;49.908;35.556;2023-04-02T07:52:59;98721.88;;;12.20;48.79
73338;BME280;61575;49.908;35.556;2023-04-02T07:56:03;98721.56;;;12.43;48.97
73338;BME280;61575;49.908;35.556;2023-04-02T07:59:05;98713.31;;;12.51;49.00
73338;BME280;61575;49.908;35.556;2023-04-02T08:02:17;98722.31;;;12.78;49.19
73338;BME280;61575;49.908;35.556;2023-04-02T08:05:20;98718.22;;;13.02;48.95
73338;BME280;61575;49.908;35.556;2023-04-02T08:08:23;98714.47;;;12.96;48.57
73338;BME280;61575;49.908;35.556;2023-04-02T08:11:26;98713.41;;;12.91;48.26
73338;BME280;61575;49.908;35.556;2023-04-02T08:14:31;98713.41;;;12.84;48.59
73338;BME280;61575;49.908;35.556;2023-04-02T08:17:33;98705.94;;;12.86;48.46
73338;BME280;61575;49.908;35.556;2023-04-02T08:20:35;98707.63;;;13.00;48.95
73338;BME280;61575;49.908;35.556;2023-04-02T08:23:37;98703.91;;;13.21;48.40
73338;BME280;61575;49.908;35.556;2023-04-02T08:26:39;98704.75;;;13.22;48.23
73338;BME280;61575;49.908;35.556;2023-04-02T08:29:43;98697.50;;;13.29;48.10
73338;BME280;61575;49.908;35.556;2023-04-02T08:32:44;98704.56;;;13.63;46.99
73338;BME280;61575;49.908;35.556;2023-04-02T08:35:47;98702.84;;;13.88;46.91
73338;BME280;61575;49.908;35.556;2023-04-02T08:38:49;98710.25;;;14.19;46.47
73338;BME280;61575;49.908;35.556;2023-04-02T08:45:03;98700.81;;;14.41;45.15
73338;BME280;61575;49.908;35.556;2023-04-02T08:48:26;98686.16;;;14.62;43.68
73338;BME280;61575;49.908;35.556;2023-04-02T08:51:33;98691.53;;;14.69;43.04
73338;BME280;61575;49.908;35.556;2023-04-02T08:54:37;98691.66;;;14.49;43.31
73338;BME280;61575;49.908;35.556;2023-04-02T08:57:46;98693.16;;;14.38;41.37
73338;BME280;61575;49.908;35.556;2023-04-02T09:00:53;98692.84;;;14.60;41.40
73338;BME280;61575;49.908;35.556;2023-04-02T09:03:57;98698.13;;;14.80;39.58
73338;BME280;61575;49.908;35.556;2023-04-02T09:07:00;98699.84;;;14.67;39.17
73338;BME280;61575;49.908;35.556;2023-04-02T09:10:02;98698.66;;;14.57;39.23
73338;BME280;61575;49.908;35.556;2023-04-02T09:13:06;98700.03;;;14.28;37.82
73338;BME280;61575;49.908;35.556;2023-04-02T09:16:17;98698.16;;;14.28;39.15
73338;BME280;61575;49.908;35.556;2023-04-02T09:19:40;98701.88;;;14.34;39.52
73338;BME280;61575;49.908;35.556;2023-04-02T09:22:46;98702.97;;;14.20;39.84
73338;BME280;61575;49.908;35.556;2023-04-02T09:25:51;98691.78;;;14.09;39.77
73338;BME280;61575;49.908;35.556;2023-04-02T09:35:30;98683.31;;;14.51;39.19
73338;BME280;61575;49.908;35.556;2023-04-02T09:38:32;98686.28;;;14.81;38.42
73338;BME280;61575;49.908;35.556;2023-04-02T09:41:35;98692.72;;;14.80;37.11
73338;BME280;61575;49.908;35.556;2023-04-02T09:44:38;98695.44;;;14.80;37.24
73338;BME280;61575;49.908;35.556;2023-04-02T09:47:40;98686.31;;;14.74;38.34
73338;BME280;61575;49.908;35.556;2023-04-02T09:50:43;98688.00;;;14.68;38.51
73338;BME280;61575;49.908;35.556;2023-04-02T09:54:05;98674.50;;;14.68;39.40
73338;BME280;61575;49.908;35.556;2023-04-02T09:57:21;98675.09;;;15.02;40.21
73338;BME280;61575;49.908;35.556;2023-04-02T10:00:28;98688.41;;;15.53;38.87
73338;BME280;61575;49.908;35.556;2023-04-02T10:03:33;98681.34;;;15.77;39.54
73338;BME280;61575;49.908;35.556;2023-04-02T10:06:35;98680.63;;;15.88;39.36
73338;BME280;61575;49.908;35.556;2023-04-02T10:09:38;98685.63;;;15.66;39.59
73338;BME280;61575;49.908;35.556;2023-04-02T10:12:58;98674.78;;;15.41;39.86
73338;BME280;61575;49.908;35.556;2023-04-02T10:16:04;98682.81;;;15.30;40.59
73338;BME280;61575;49.908;35.556;2023-04-02T10:22:33;98677.97;;;15.07;40.92
73338;BME280;61575;49.908;35.556;2023-04-02T10:25:41;98690.41;;;14.83;40.16
73338;BME280;61575;49.908;35.556;2023-04-02T10:32:36;98682.09;;;14.85;40.56
73338;BME280;61575;49.908;35.556;2023-04-02T10:39:24;98681.91;;;14.80;38.89
73338;BME280;61575;49.908;35.556;2023-04-02T10:42:37;98691.19;;;14.59;37.14
73338;BME280;61575;49.908;35.556;2023-04-02T10:45:50;98690.50;;;14.25;37.24
73338;BME280;61575;49.908;35.556;2023-04-02T10:52:28;98702.84;;;13.95;39.91
73338;BME280;61575;49.908;35.556;2023-04-02T10:55:37;98700.78;;;13.84;40.33
73338;BME280;61575;49.908;35.556;2023-04-02T10:59:02;98715.34;;;13.76;40.97
73338;BME280;61575;49.908;35.556;2023-04-02T11:05:48;98710.59;;;13.45;39.45
73338;BME280;61575;49.908;35.556;2023-04-02T11:08:55;98712.22;;;13.26;38.29
73338;BME280;61575;49.908;35.556;2023-04-02T11:12:00;98711.19;;;13.14;38.34
73338;BME280;61575;49.908;35.556;2023-04-02T11:15:13;98716.34;;;13.09;38.86
73338;BME280;61575;49.908;35.556;2023-04-02T11:18:29;98716.78;;;13.12;38.64
73338;BME280;61575;49.908;35.556;2023-04-02T11:21:40;98713.88;;;13.21;38.84
73338;BME280;61575;49.908;35.556;2023-04-02T11:24:56;98704.75;;;13.15;38.18
73338;BME280;61575;49.908;35.556;2023-04-02T11:28:23;98706.81;;;13.13;37.38
73338;BME280;61575;49.908;35.556;2023-04-02T11:31:27;98707.66;;;13.20;37.66
73338;BME280;61575;49.908;35.556;2023-04-02T11:37:44;98703.50;;;13.11;37.35
73338;BME280;61575;49.908;35.556;2023-04-02T11:40:53;98703.28;;;13.12;37.36
73338;BME280;61575;49.908;35.556;2023-04-02T11:44:00;98702.06;;;13.15;37.48
73338;BME280;61575;49.908;35.556;2023-04-02T11:47:24;98712.63;;;13.23;37.90
73338;BME280;61575;49.908;35.556;2023-04-02T11:53:32;98710.38;;;13.33;38.08
73338;BME280;61575;49.908;35.556;2023-04-02T11:56:45;98706.66;;;13.34;38.35
73338;BME280;61575;49.908;35.556;2023-04-02T12:00:11;98704.34;;;13.31;38.24
73338;BME280;61575;49.908;35.556;2023-04-02T12:10:21;98705.63;;;13.42;37.11
73338;BME280;61575;49.908;35.556;2023-04-02T12:16:41;98698.97;;;13.51;37.18
73338;BME280;61575;49.908;35.556;2023-04-02T12:19:51;98701.03;;;13.56;37.25
73338;BME280;61575;49.908;35.556;2023-04-02T12:22:57;98693.56;;;13.71;37.17
73338;BME280;61575;49.908;35.556;2023-04-02T12:26:04;98700.19;;;13.68;36.35
73338;BME280;61575;49.908;35.556;2023-04-02T12:29:23;98686.91;;;13.73;36.72
73338;BME280;61575;49.908;35.556;2023-04-02T12:32:29;98683.97;;;13.82;36.83
73338;BME280;61575;49.908;35.556;2023-04-02T12:35:34;98693.91;;;13.94;37.49
73338;BME280;61575;49.908;35.556;2023-04-02T12:38:52;98688.06;;;14.04;37.13
73338;BME280;61575;49.908;35.556;2023-04-02T12:41:54;98696.19;;;14.04;37.19
73338;BME280;61575;49.908;35.556;2023-04-02T12:44:57;98690.00;;;13.84;36.27
73338;BME280;61575;49.908;35.556;2023-04-02T12:48:02;98692.31;;;13.67;36.42
73338;BME280;61575;49.908;35.556;2023-04-02T12:51:09;98680.69;;;13.66;36.87
73338;BME280;61575;49.908;35.556;2023-04-02T12:54:16;98685.91;;;13.55;36.84
73338;BME280;61575;49.908;35.556;2023-04-02T13:00:29;98673.84;;;13.57;37.26
73338;BME280;61575;49.908;35.556;2023-04-02T13:03:39;98673.25;;;13.55;37.07
73338;BME280;61575;49.908;35.556;2023-04-02T13:06:48;98679.88;;;13.53;36.94
73338;BME280;61575;49.908;35.556;2023-04-02T13:09:54;98682.38;;;13.54;36.71
73338;BME280;61575;49.908;35.556;2023-04-02T13:12:59;98670.31;;;13.57;37.16
73338;BME280;61575;49.908;35.556;2023-04-02T13:19:29;98669.50;;;13.56;36.52
73338;BME280;61575;49.908;35.556;2023-04-02T13:22:34;98663.91;;;13.44;37.07
73338;BME280;61575;49.908;35.556;2023-04-02T13:25:36;98658.94;;;13.35;37.52
73338;BME280;61575;49.908;35.556;2023-04-02T13:28:38;98653.09;;;13.31;37.55
73338;BME280;61575;49.908;35.556;2023-04-02T13:31:40;98661.44;;;13.36;37.58
73338;BME280;61575;49.908;35.556;2023-04-02T13:34:42;98652.47;;;13.29;37.43
73338;BME280;61575;49.908;35.556;2023-04-02T13:37:46;98657.28;;;13.34;37.64
73338;BME280;61575;49.908;35.556;2023-04-02T13:40:48;98645.44;;;13.28;37.56
73338;BME280;61575;49.908;35.556;2023-04-02T13:43:51;98651.66;;;13.29;37.85
73338;BME280;61575;49.908;35.556;2023-04-02T13:46:56;98653.13;;;13.38;38.45
73338;BME280;61575;49.908;35.556;2023-04-02T13:49:58;98651.47;;;13.37;38.35
73338;BME280;61575;49.908;35.556;2023-04-02T13:53:05;98650.03;;;13.34;38.42
73338;BME280;61575;49.908;35.556;2023-04-02T13:56:13;98646.50;;;13.34;38.64
73338;BME280;61575;49.908;35.556;2023-04-02T13:59:15;98645.88;;;13.32;39.36
73338;BME280;61575;49.908;35.556;2023-04-02T14:02:23;98643.38;;;13.37;40.20
73338;BME280;61575;49.908;35.556;2023-04-02T14:05:40;98650.00;;;13.47;40.36
73338;BME280;61575;49.908;35.556;2023-04-02T14:22:08;98643.78;;;13.40;40.07
73338;BME280;61575;49.908;35.556;2023-04-02T14:32:17;98639.03;;;13.36;40.56
73338;BME280;61575;49.908;35.556;2023-04-02T14:41:51;98630.53;;;13.32;40.96
73338;BME280;61575;49.908;35.556;2023-04-02T14:51:29;98628.84;;;13.18;40.71
73338;BME280;61575;49.908;35.556;2023-04-02T14:54:38;98631.31;;;13.26;40.78
73338;BME280;61575;49.908;35.556;2023-04-02T14:57:49;98621.38;;;13.20;40.61
73338;BME280;61575;49.908;35.556;2023-04-02T15:00:57;98626.78;;;13.20;41.23
73338;BME280;61575;49.908;35.556;2023-04-02T15:04:09;98624.50;;;13.17;41.17
73338;BME280;61575;49.908;35.556;2023-04-02T15:07:18;98631.34;;;13.13;41.21
73338;BME280;61575;49.908;35.556;2023-04-02T15:10:47;98630.09;;;13.09;41.47
73338;BME280;61575;49.908;35.556;2023-04-02T15:14:00;98626.78;;;13.07;41.60
73338;BME280;61575;49.908;35.556;2023-04-02T15:17:09;98629.69;;;13.05;41.87
73338;BME280;61575;49.908;35.556;2023-04-02T15:20:14;98627.41;;;13.02;42.17
73338;BME280;61575;49.908;35.556;2023-04-02T15:32:53;98644.81;;;12.87;43.55
73338;BME280;61575;49.908;35.556;2023-04-02T15:42:29;98645.00;;;12.78;43.81
73338;BME280;61575;49.908;35.556;2023-04-02T15:45:49;98646.22;;;12.69;43.82
73338;BME280;61575;49.908;35.556;2023-04-02T15:59:39;98649.09;;;12.48;44.59
73338;BME280;61575;49.908;35.556;2023-04-02T16:09:27;98663.13;;;12.37;45.00
73338;BME280;61575;49.908;35.556;2023-04-02T16:12:32;98663.34;;;12.35;44.93
73338;BME280;61575;49.908;35.556;2023-04-02T16:15:42;98659.63;;;12.36;45.25
73338;BME280;61575;49.908;35.556;2023-04-02T16:22:03;98660.84;;;12.34;45.18
73338;BME280;61575;49.908;35.556;2023-04-02T16:25:14;98656.69;;;12.31;45.47
73338;BME280;61575;49.908;35.556;2023-04-02T16:31:47;98656.28;;;12.28;45.66
73338;BME280;61575;49.908;35.556;2023-04-02T16:42:07;98671.31;;;12.09;45.92
73338;BME280;61575;49.908;35.556;2023-04-02T16:52:01;98668.31;;;11.97;46.03
73338;BME280;61575;49.908;35.556;2023-04-02T17:01:55;98678.59;;;11.80;47.03
73338;BME280;61575;49.908;35.556;2023-04-02T17:05:24;98676.06;;;11.72;48.20
73338;BME280;61575;49.908;35.556;2023-04-02T17:08:37;98679.94;;;11.63;48.23
73338;BME280;61575;49.908;35.556;2023-04-02T17:11:54;98673.69;;;11.56;48.16
73338;BME280;61575;49.908;35.556;2023-04-02T17:15:13;98679.44;;;11.53;48.59
73338;BME280;61575;49.908;35.556;2023-04-02T17:18:30;98681.25;;;11.46;49.08
73338;BME280;61575;49.908;35.556;2023-04-02T17:21:34;98682.03;;;11.40;49.04
73338;BME280;61575;49.908;35.556;2023-04-02T17:25:05;98678.28;;;11.34;49.20
73338;BME280;61575;49.908;35.556;2023-04-02T17:28:09;98682.38;;;11.30;48.90
73338;BME280;61575;49.908;35.556;2023-04-02T17:31:26;98681.09;;;11.26;48.22
73338;BME280;61575;49.908;35.556;2023-04-02T17:34:31;98681.50;;;11.23;48.52
73338;BME280;61575;49.908;35.556;2023-04-02T17:38:27;98676.50;;;11.20;48.47
73338;BME280;61575;49.908;35.556;2023-04-02T17:41:09;98681.44;;;11.16;49.48
73338;BME280;61575;49.908;35.556;2023-04-02T18:01:30;98699.16;;;11.11;50.94
73338;BME280;61575;49.908;35.556;2023-04-02T18:08:36;98695.66;;;11.10;51.34
73338;BME280;61575;49.908;35.556;2023-04-02T18:12:21;98699.94;;;11.05;51.86
73338;BME280;61575;49.908;35.556;2023-04-02T18:15:57;98699.56;;;11.08;51.75
73338;BME280;61575;49.908;35.556;2023-04-02T18:22:31;98702.44;;;11.06;51.50
73338;BME280;61575;49.908;35.556;2023-04-02T18:25:42;98703.28;;;11.07;51.35
73338;BME280;61575;49.908;35.556;2023-04-02T18:35:33;98702.75;;;10.97;51.34
73338;BME280;61575;49.908;35.556;2023-04-02T18:42:14;98707.25;;;10.89;51.70
73338;BME280;61575;49.908;35.556;2023-04-02T18:52:08;98718.75;;;10.83;52.75
73338;BME280;61575;49.908;35.556;2023-04-02T18:55:18;98722.84;;;10.79;53.60
73338;BME280;61575;49.908;35.556;2023-04-02T18:58:27;98723.50;;;10.67;54.72
73338;BME280;61575;49.908;35.556;2023-04-02T19:01:38;98726.47;;;10.57;55.61
73338;BME280;61575;49.908;35.556;2023-04-02T19:05:00;98722.91;;;10.50;55.43
73338;BME280;61575;49.908;35.556;2023-04-02T19:08:23;98721.06;;;10.36;55.84
73338;BME280;61575;49.908;35.556;2023-04-02T19:11:29;98721.06;;;10.36;55.73
73338;BME280;61575;49.908;35.556;2023-04-02T19:14:32;98716.09;;;10.33;56.67
73338;BME280;61575;49.908;35.556;2023-04-02T19:17:41;98714.78;;;10.29;56.69
73338;BME280;61575;49.908;35.556;2023-04-02T19:20:53;98710.56;;;10.19;57.05
73338;BME280;61575;49.908;35.556;2023-04-02T19:43:34;98734.03;;;9.58;63.03
73338;BME280;61575;49.908;35.556;2023-04-02T19:46:39;98733.94;;;9.52;63.65
73338;BME280;61575;49.908;35.556;2023-04-02T19:49:43;98732.88;;;9.38;65.10
73338;BME280;61575;49.908;35.556;2023-04-02T19:52:45;98737.22;;;9.24;65.97
73338;BME280;61575;49.908;35.556;2023-04-02T19:55:47;98738.31;;;9.15;66.66
73338;BME280;61575;49.908;35.556;2023-04-02T19:58:51;98739.84;;;9.10;67.40
73338;BME280;61575;49.908;35.556;2023-04-02T20:01:53;98740.59;;;8.95;68.55
73338;BME280;61575;49.908;35.556;2023-04-02T20:04:55;98734.59;;;8.93;68.94
73338;BME280;61575;49.908;35.556;2023-04-02T20:07:58;98737.81;;;8.89;69.72
73338;BME280;61575;49.908;35.556;2023-04-02T20:11:01;98736.00;;;8.81;70.41
73338;BME280;61575;49.908;35.556;2023-04-02T20:14:06;98738.41;;;8.76;70.83
73338;BME280;61575;49.908;35.556;2023-04-02T20:17:08;98745.13;;;8.72;71.40
73338;BME280;61575;49.908;35.556;2023-04-02T20:20:15;98733.28;;;8.67;72.14
73338;BME280;61575;49.908;35.556;2023-04-02T20:23:17;98734.63;;;8.62;72.53
73338;BME280;61575;49.908;35.556;2023-04-02T20:26:21;98737.47;;;8.61;72.88
73338;BME280;61575;49.908;35.556;2023-04-02T20:29:23;98718.50;;;8.48;73.85
73338;BME280;61575;49.908;35.556;2023-04-02T20:32:28;98715.28;;;8.52;73.56
73338;BME280;61575;49.908;35.556;2023-04-02T20:35:30;98711.78;;;8.52;73.51
73338;BME280;61575;49.908;35.556;2023-04-02T20:38:38;98709.81;;;8.46;74.15
73338;BME280;61575;49.908;35.556;2023-04-02T20:41:40;98704.81;;;8.43;74.57
73338;BME280;61575;49.908;35.556;2023-04-02T20:44:44;98714.19;;;8.39;74.99
73338;BME280;61575;49.908;35.556;2023-04-02T20:47:52;98707.00;;;8.39;75.21
73338;BME280;61575;49.908;35.556;2023-04-02T20:50:58;98714.72;;;8.34;75.86
73338;BME280;61575;49.908;35.556;2023-04-02T20:54:00;98694.50;;;8.31;76.37
73338;BME280;61575;49.908;35.556;2023-04-02T20:57:02;98701.22;;;8.27;77.09
73338;BME280;61575;49.908;35.556;2023-04-02T21:00:06;98700.56;;;8.25;77.41